sensor_id;sensor_type;location;lat;lon;timestamp;pressure;altitude;pressure_sealevel;temperature;humidity
69749;BME280;57019;52.354;6.584;2022-09-01T00:01:43;102213.94;;;22.74;41.66
69749;BME280;57019;52.354;6.584;2022-09-01T00:04:10;102212.13;;;22.75;41.51
69749;BME280;57019;52.354;6.584;2022-09-01T00:06:37;102202.75;;;22.72;41.66
69749;BME280;57019;52.354;6.584;2022-09-01T00:09:07;102208.00;;;22.72;41.59
69749;BME280;57019;52.354;6.584;2022-09-01T00:11:33;102207.38;;;22.70;41.57
69749;BME280;57019;52.354;6.584;2022-09-01T00:14:00;102212.63;;;22.70;41.74
69749;BME280;57019;52.354;6.584;2022-09-01T00:16:26;102203.25;;;22.67;41.71
69749;BME280;57019;52.354;6.584;2022-09-01T00:18:53;102207.69;;;22.67;41.67
69749;BME280;57019;52.354;6.584;2022-09-01T00:21:23;102207.03;;;22.65;41.48
69749;BME280;57019;52.354;6.584;2022-09-01T00:23:49;102207.03;;;22.65;41.68
69749;BME280;57019;52.354;6.584;2022-09-01T00:26:14;102200.13;;;22.64;41.59
69749;BME280;57019;52.354;6.584;2022-09-01T00:28:40;102208.19;;;22.62;41.84
69749;BME280;57019;52.354;6.584;2022-09-01T00:31:06;102210.97;;;22.61;41.69
69749;BME280;57019;52.354;6.584;2022-09-01T00:33:34;102211.16;;;22.59;41.63
69749;BME280;57019;52.354;6.584;2022-09-01T00:36:00;102213.09;;;22.57;41.62
69749;BME280;57019;52.354;6.584;2022-09-01T00:38:25;102218.53;;;22.56;41.84
69749;BME280;57019;52.354;6.584;2022-09-01T00:40:52;102222.19;;;22.55;41.61
69749;BME280;57019;52.354;6.584;2022-09-01T00:46:46;102209.66;;;22.48;41.84
69749;BME280;57019;52.354;6.584;2022-09-01T00:49:18;102205.38;;;22.47;41.63
69749;BME280;57019;52.354;6.584;2022-09-01T00:51:48;102209.03;;;22.46;41.68
69749;BME280;57019;52.354;6.584;2022-09-01T00:54:18;102199.63;;;22.44;41.79
69749;BME280;57019;52.354;6.584;2022-09-01T00:56:44;102199.63;;;22.44;41.61
69749;BME280;57019;52.354;6.584;2022-09-01T00:59:11;102195.53;;;22.41;41.68
69749;BME280;57019;52.354;6.584;2022-09-01T01:01:37;102195.69;;;22.40;41.76
69749;BME280;57019;52.354;6.584;2022-09-01T01:04:05;102195.00;;;22.38;41.76
69749;BME280;57019;52.354;6.584;2022-09-01T01:06:31;102199.47;;;22.37;41.83
69749;BME280;57019;52.354;6.584;2022-09-01T01:08:58;102203.88;;;22.36;41.58
69749;BME280;57019;52.354;6.584;2022-09-01T01:11:28;102205.88;;;22.34;41.61
69749;BME280;57019;52.354;6.584;2022-09-01T01:13:59;102201.44;;;22.35;41.56
69749;BME280;57019;52.354;6.584;2022-09-01T01:16:27;102201.44;;;22.35;41.66
69749;BME280;57019;52.354;6.584;2022-09-01T01:18:53;102198.13;;;22.33;41.56
69749;BME280;57019;52.354;6.584;2022-09-01T01:21:34;102203.38;;;22.33;41.54
69749;BME280;57019;52.354;6.584;2022-09-01T01:26:51;102194.97;;;22.29;41.57
69749;BME280;57019;52.354;6.584;2022-09-01T01:29:17;102195.16;;;22.28;41.51
69749;BME280;57019;52.354;6.584;2022-09-01T01:31:43;102196.28;;;22.25;41.66
69749;BME280;57019;52.354;6.584;2022-09-01T01:34:11;102193.81;;;22.24;41.60
69749;BME280;57019;52.354;6.584;2022-09-01T01:36:38;102197.59;;;22.21;41.54
69749;BME280;57019;52.354;6.584;2022-09-01T01:39:16;102204.69;;;22.20;41.53
69749;BME280;57019;52.354;6.584;2022-09-01T01:41:44;102192.00;;;22.16;41.66
69749;BME280;57019;52.354;6.584;2022-09-01T01:44:14;102190.53;;;22.13;41.51
69749;BME280;57019;52.354;6.584;2022-09-01T01:46:43;102203.69;;;22.13;41.37
69749;BME280;57019;52.354;6.584;2022-09-01T01:49:10;102191.50;;;22.12;41.63
69749;BME280;57019;52.354;6.584;2022-09-01T01:51:38;102188.88;;;22.12;41.29
69749;BME280;57019;52.354;6.584;2022-09-01T01:54:03;102196.09;;;22.10;41.34
69749;BME280;57019;52.354;6.584;2022-09-01T01:56:31;102196.25;;;22.09;41.29
69749;BME280;57019;52.354;6.584;2022-09-01T01:58:58;102197.91;;;22.10;41.48
69749;BME280;57019;52.354;6.584;2022-09-01T02:01:28;102191.97;;;22.08;41.35
69749;BME280;57019;52.354;6.584;2022-09-01T02:03:57;102190.38;;;22.07;41.46
69749;BME280;57019;52.354;6.584;2022-09-01T02:06:24;102194.94;;;22.05;41.39
69749;BME280;57019;52.354;6.584;2022-09-01T02:08:55;102197.75;;;22.03;41.47
69749;BME280;57019;52.354;6.584;2022-09-01T02:11:23;102192.47;;;22.03;41.46
69749;BME280;57019;52.354;6.584;2022-09-01T02:13:51;102194.47;;;22.01;41.29
69749;BME280;57019;52.354;6.584;2022-09-01T02:16:20;102198.06;;;22.00;41.25
69749;BME280;57019;52.354;6.584;2022-09-01T02:18:47;102197.22;;;21.99;41.24
69749;BME280;57019;52.354;6.584;2022-09-01T02:21:15;102193.13;;;21.97;41.37
69749;BME280;57019;52.354;6.584;2022-09-01T02:24:05;102191.50;;;21.96;41.32
69749;BME280;57019;52.354;6.584;2022-09-01T02:26:35;102198.69;;;21.94;41.32
69749;BME280;57019;52.354;6.584;2022-09-01T02:29:07;102199.69;;;21.93;41.21
69749;BME280;57019;52.354;6.584;2022-09-01T02:31:35;102195.59;;;21.90;40.97
69749;BME280;57019;52.354;6.584;2022-09-01T02:34:03;102182.59;;;21.89;40.98
69749;BME280;57019;52.354;6.584;2022-09-01T02:36:30;102186.03;;;21.89;40.89
69749;BME280;57019;52.354;6.584;2022-09-01T02:38:59;102189.66;;;21.88;41.07
69749;BME280;57019;52.354;6.584;2022-09-01T02:41:24;102188.16;;;21.85;41.03
69749;BME280;57019;52.354;6.584;2022-09-01T02:43:53;102193.41;;;21.85;41.00
69749;BME280;57019;52.354;6.584;2022-09-01T02:46:18;102184.88;;;21.83;40.89
69749;BME280;57019;52.354;6.584;2022-09-01T02:48:47;102185.84;;;21.82;41.20
69749;BME280;57019;52.354;6.584;2022-09-01T02:51:18;102186.66;;;21.83;40.85
69749;BME280;57019;52.354;6.584;2022-09-01T02:53:45;102191.94;;;21.83;41.00
69749;BME280;57019;52.354;6.584;2022-09-01T02:56:13;102191.28;;;21.81;40.86
69749;BME280;57019;52.354;6.584;2022-09-01T02:58:41;102191.28;;;21.81;40.86
69749;BME280;57019;52.354;6.584;2022-09-01T03:01:24;102201.78;;;21.81;41.03
69749;BME280;57019;52.354;6.584;2022-09-01T03:03:54;102180.94;;;21.79;40.89
69749;BME280;57019;52.354;6.584;2022-09-01T03:06:21;102180.94;;;21.79;40.98
69749;BME280;57019;52.354;6.584;2022-09-01T03:08:52;102188.13;;;21.77;40.82
69749;BME280;57019;52.354;6.584;2022-09-01T03:11:18;102176.81;;;21.77;40.74
69749;BME280;57019;52.354;6.584;2022-09-01T03:13:44;102191.78;;;21.76;40.63
69749;BME280;57019;52.354;6.584;2022-09-01T03:16:10;102192.75;;;21.75;40.79
69749;BME280;57019;52.354;6.584;2022-09-01T03:18:37;102193.06;;;21.72;40.53
69749;BME280;57019;52.354;6.584;2022-09-01T03:21:03;102188.78;;;21.71;40.51
69749;BME280;57019;52.354;6.584;2022-09-01T03:23:30;102188.78;;;21.71;40.64
69749;BME280;57019;52.354;6.584;2022-09-01T03:25:56;102188.09;;;21.69;40.78
69749;BME280;57019;52.354;6.584;2022-09-01T03:28:21;102189.13;;;21.68;40.70
69749;BME280;57019;52.354;6.584;2022-09-01T03:30:53;102184.84;;;21.67;40.84
69749;BME280;57019;52.354;6.584;2022-09-01T03:33:21;102191.06;;;21.66;40.67
69749;BME280;57019;52.354;6.584;2022-09-01T03:35:46;102197.28;;;21.65;40.57
69749;BME280;57019;52.354;6.584;2022-09-01T03:38:13;102188.59;;;21.64;40.65
69749;BME280;57019;52.354;6.584;2022-09-01T03:40:48;102192.19;;;21.63;40.73
69749;BME280;57019;52.354;6.584;2022-09-01T03:43:14;102194.84;;;21.63;40.60
69749;BME280;57019;52.354;6.584;2022-09-01T03:45:41;102192.38;;;21.62;40.40
69749;BME280;57019;52.354;6.584;2022-09-01T03:48:08;102188.25;;;21.59;40.43
69749;BME280;57019;52.354;6.584;2022-09-01T03:50:41;102183.16;;;21.58;40.66
69749;BME280;57019;52.354;6.584;2022-09-01T03:53:17;102188.41;;;21.58;40.63
69749;BME280;57019;52.354;6.584;2022-09-01T03:55:45;102186.75;;;21.57;40.60
69749;BME280;57019;52.354;6.584;2022-09-01T03:58:12;102190.38;;;21.56;40.60
69749;BME280;57019;52.354;6.584;2022-09-01T04:00:43;102200.91;;;21.56;40.65
69749;BME280;57019;52.354;6.584;2022-09-01T04:03:10;102194.78;;;21.55;40.50
69749;BME280;57019;52.354;6.584;2022-09-01T04:05:38;102187.88;;;21.54;40.32
69749;BME280;57019;52.354;6.584;2022-09-01T04:08:06;102187.06;;;21.54;40.62
69749;BME280;57019;52.354;6.584;2022-09-01T04:10:37;102185.44;;;21.52;40.38
69749;BME280;57019;52.354;6.584;2022-09-01T04:13:06;102185.56;;;21.51;40.51
69749;BME280;57019;52.354;6.584;2022-09-01T04:15:36;102182.13;;;21.50;40.68
69749;BME280;57019;52.354;6.584;2022-09-01T04:18:02;102181.28;;;21.50;40.52
69749;BME280;57019;52.354;6.584;2022-09-01T04:20:39;102179.66;;;21.49;40.58
69749;BME280;57019;52.354;6.584;2022-09-01T04:23:33;102185.72;;;21.49;40.32
69749;BME280;57019;52.354;6.584;2022-09-01T04:26:08;102185.06;;;21.47;40.33
69749;BME280;57019;52.354;6.584;2022-09-01T04:28:42;102184.38;;;21.45;40.56
69749;BME280;57019;52.354;6.584;2022-09-01T04:31:12;102181.09;;;21.43;40.37
69749;BME280;57019;52.354;6.584;2022-09-01T04:33:41;102178.47;;;21.43;40.28
69749;BME280;57019;52.354;6.584;2022-09-01T04:36:24;102184.72;;;21.42;40.71
69749;BME280;57019;52.354;6.584;2022-09-01T04:38:54;102185.03;;;21.39;40.52
69749;BME280;57019;52.354;6.584;2022-09-01T04:41:26;102179.78;;;21.39;40.47
69749;BME280;57019;52.354;6.584;2022-09-01T04:43:55;102183.38;;;21.38;40.49
69749;BME280;57019;52.354;6.584;2022-09-01T04:46:21;102188.78;;;21.37;40.24
69749;BME280;57019;52.354;6.584;2022-09-01T04:48:50;102190.56;;;21.36;40.59
69749;BME280;57019;52.354;6.584;2022-09-01T04:51:15;102182.41;;;21.39;40.46
69749;BME280;57019;52.354;6.584;2022-09-01T04:53:43;102183.72;;;21.43;40.30
69749;BME280;57019;52.354;6.584;2022-09-01T04:56:14;102184.91;;;21.49;40.35
69749;BME280;57019;52.354;6.584;2022-09-01T04:58:45;102180.16;;;21.52;40.40
69749;BME280;57019;52.354;6.584;2022-09-01T05:01:18;102181.50;;;21.57;40.39
69749;BME280;57019;52.354;6.584;2022-09-01T05:03:44;102176.25;;;21.57;40.30
69749;BME280;57019;52.354;6.584;2022-09-01T05:06:14;102179.03;;;21.55;40.44
69749;BME280;57019;52.354;6.584;2022-09-01T05:08:42;102174.91;;;21.52;40.16
69749;BME280;57019;52.354;6.584;2022-09-01T05:11:10;102176.69;;;21.52;40.21
69749;BME280;57019;52.354;6.584;2022-09-01T05:13:37;102177.91;;;21.58;40.11
69749;BME280;57019;52.354;6.584;2022-09-01T05:16:09;102178.22;;;21.55;40.11
69749;BME280;57019;52.354;6.584;2022-09-01T05:18:39;102172.56;;;21.49;40.13
69749;BME280;57019;52.354;6.584;2022-09-01T05:21:07;102179.13;;;21.45;40.48
69749;BME280;57019;52.354;6.584;2022-09-01T05:23:37;102179.44;;;21.42;40.23
69749;BME280;57019;52.354;6.584;2022-09-01T05:26:05;102185.69;;;21.41;40.16
69749;BME280;57019;52.354;6.584;2022-09-01T05:28:39;102184.19;;;21.39;40.37
69749;BME280;57019;52.354;6.584;2022-09-01T05:31:14;102193.38;;;21.34;40.43
69749;BME280;57019;52.354;6.584;2022-09-01T05:33:44;102194.50;;;21.32;40.40
69749;BME280;57019;52.354;6.584;2022-09-01T05:36:11;102185.31;;;21.36;40.49
69749;BME280;57019;52.354;6.584;2022-09-01T05:38:36;102194.22;;;21.35;40.46
69749;BME280;57019;52.354;6.584;2022-09-01T05:41:07;102197.13;;;21.32;40.21
69749;BME280;57019;52.354;6.584;2022-09-01T05:43:33;102191.22;;;21.30;40.56
69749;BME280;57019;52.354;6.584;2022-09-01T05:46:00;102194.81;;;21.29;40.46
69749;BME280;57019;52.354;6.584;2022-09-01T05:48:28;102198.63;;;21.34;40.18
69749;BME280;57019;52.354;6.584;2022-09-01T05:50:56;102198.78;;;21.33;40.38
69749;BME280;57019;52.354;6.584;2022-09-01T05:53:23;102202.69;;;21.29;40.51
69749;BME280;57019;52.354;6.584;2022-09-01T05:55:50;102203.66;;;21.28;40.66
69749;BME280;57019;52.354;6.584;2022-09-01T05:58:24;102204.97;;;21.24;40.59
69749;BME280;57019;52.354;6.584;2022-09-01T06:00:51;102205.13;;;21.22;40.61
69749;BME280;57019;52.354;6.584;2022-09-01T06:03:19;102204.97;;;21.24;40.60
69749;BME280;57019;52.354;6.584;2022-09-01T06:05:44;102204.00;;;21.25;40.59
69749;BME280;57019;52.354;6.584;2022-09-01T06:08:18;102207.59;;;21.24;40.57
69749;BME280;57019;52.354;6.584;2022-09-01T06:10:43;102210.91;;;21.26;40.48
69749;BME280;57019;52.354;6.584;2022-09-01T06:13:09;102214.19;;;21.28;40.60
69749;BME280;57019;52.354;6.584;2022-09-01T06:15:36;102210.59;;;21.29;40.70
69749;BME280;57019;52.354;6.584;2022-09-01T06:18:05;102207.47;;;21.33;40.76
69749;BME280;57019;52.354;6.584;2022-09-01T06:20:32;102214.22;;;21.36;40.49
69749;BME280;57019;52.354;6.584;2022-09-01T06:22:58;102207.84;;;21.39;40.64
69749;BME280;57019;52.354;6.584;2022-09-01T06:25:24;102213.63;;;21.42;40.74
69749;BME280;57019;52.354;6.584;2022-09-01T06:27:55;102209.69;;;21.46;40.52
69749;BME280;57019;52.354;6.584;2022-09-01T06:30:20;102208.22;;;21.52;40.68
69749;BME280;57019;52.354;6.584;2022-09-01T06:32:51;102205.84;;;21.59;40.59
69749;BME280;57019;52.354;6.584;2022-09-01T06:35:17;102198.75;;;21.59;40.45
69749;BME280;57019;52.354;6.584;2022-09-01T06:37:43;102203.03;;;21.60;40.76
69749;BME280;57019;52.354;6.584;2022-09-01T06:40:12;102205.19;;;21.65;40.70
69749;BME280;57019;52.354;6.584;2022-09-01T06:42:48;102209.47;;;21.66;40.59
69749;BME280;57019;52.354;6.584;2022-09-01T06:45:16;102210.16;;;21.68;40.56
69749;BME280;57019;52.354;6.584;2022-09-01T06:47:43;102210.16;;;21.68;40.46
69749;BME280;57019;52.354;6.584;2022-09-01T06:50:20;102206.50;;;21.69;40.67
69749;BME280;57019;52.354;6.584;2022-09-01T06:52:47;102213.41;;;21.70;40.39
69749;BME280;57019;52.354;6.584;2022-09-01T06:55:15;102223.94;;;21.70;40.73
69749;BME280;57019;52.354;6.584;2022-09-01T06:57:42;102213.09;;;21.73;40.46
69749;BME280;57019;52.354;6.584;2022-09-01T07:00:12;102223.31;;;21.76;40.38
69749;BME280;57019;52.354;6.584;2022-09-01T07:02:53;102222.31;;;21.77;40.41
69749;BME280;57019;52.354;6.584;2022-09-01T07:05:19;102223.00;;;21.79;40.50
69749;BME280;57019;52.354;6.584;2022-09-01T07:07:52;102222.66;;;21.82;40.67
69749;BME280;57019;52.354;6.584;2022-09-01T07:10:25;102230.22;;;21.85;40.27
69749;BME280;57019;52.354;6.584;2022-09-01T07:12:53;102224.00;;;21.86;40.58
69749;BME280;57019;52.354;6.584;2022-09-01T07:15:20;102229.25;;;21.86;40.44
69749;BME280;57019;52.354;6.584;2022-09-01T07:17:51;102221.19;;;21.88;40.33
69749;BME280;57019;52.354;6.584;2022-09-01T07:20:18;102220.88;;;21.91;40.30
69749;BME280;57019;52.354;6.584;2022-09-01T07:22:48;102225.69;;;21.96;40.24
69749;BME280;57019;52.354;6.584;2022-09-01T07:25:14;102228.66;;;22.01;40.29
69749;BME280;57019;52.354;6.584;2022-09-01T07:27:42;102225.84;;;22.02;40.43
69749;BME280;57019;52.354;6.584;2022-09-01T07:30:14;102226.03;;;22.01;40.43
69749;BME280;57019;52.354;6.584;2022-09-01T07:32:39;102224.22;;;22.01;40.30
69749;BME280;57019;52.354;6.584;2022-09-01T07:35:10;102231.59;;;22.06;40.26
69749;BME280;57019;52.354;6.584;2022-09-01T07:37:36;102229.97;;;22.05;40.44
69749;BME280;57019;52.354;6.584;2022-09-01T07:40:04;102230.63;;;22.07;40.21
69749;BME280;57019;52.354;6.584;2022-09-01T07:42:31;102233.94;;;22.09;40.36
69749;BME280;57019;52.354;6.584;2022-09-01T07:44:56;102228.34;;;22.12;40.19
69749;BME280;57019;52.354;6.584;2022-09-01T07:47:22;102232.47;;;22.15;40.05
69749;BME280;57019;52.354;6.584;2022-09-01T07:49:48;102227.84;;;22.17;40.08
69749;BME280;57019;52.354;6.584;2022-09-01T07:52:13;102223.09;;;22.20;40.27
69749;BME280;57019;52.354;6.584;2022-09-01T07:54:38;102227.38;;;22.22;40.28
69749;BME280;57019;52.354;6.584;2022-09-01T07:57:04;102228.34;;;22.20;40.29
69749;BME280;57019;52.354;6.584;2022-09-01T07:59:30;102236.09;;;22.22;40.43
69749;BME280;57019;52.354;6.584;2022-09-01T08:01:55;102233.13;;;22.25;40.36
69749;BME280;57019;52.354;6.584;2022-09-01T08:04:21;102219.81;;;22.27;40.13
69749;BME280;57019;52.354;6.584;2022-09-01T08:06:47;102221.47;;;22.28;40.43
69749;BME280;57019;52.354;6.584;2022-09-01T08:09:13;102224.09;;;22.28;40.45
69749;BME280;57019;52.354;6.584;2022-09-01T08:11:38;102226.72;;;22.28;40.35
69749;BME280;57019;52.354;6.584;2022-09-01T08:14:04;102224.59;;;22.31;40.23
69749;BME280;57019;52.354;6.584;2022-09-01T08:16:29;102231.38;;;22.34;40.49
69749;BME280;57019;52.354;6.584;2022-09-01T08:18:55;102231.38;;;22.34;40.46
69749;BME280;57019;52.354;6.584;2022-09-01T08:21:22;102227.88;;;22.33;40.42
69749;BME280;57019;52.354;6.584;2022-09-01T08:23:49;102236.09;;;22.30;40.65
69749;BME280;57019;52.354;6.584;2022-09-01T08:26:17;102234.13;;;22.32;40.48
69749;BME280;57019;52.354;6.584;2022-09-01T08:28:43;102228.03;;;22.32;40.55
69749;BME280;57019;52.354;6.584;2022-09-01T08:31:10;102236.63;;;22.34;40.62
69749;BME280;57019;52.354;6.584;2022-09-01T08:33:37;102239.28;;;22.34;40.55
69749;BME280;57019;52.354;6.584;2022-09-01T08:36:06;102235.47;;;22.36;40.48
69749;BME280;57019;52.354;6.584;2022-09-01T08:38:31;102235.47;;;22.36;40.53
69749;BME280;57019;52.354;6.584;2022-09-01T08:40:58;102230.88;;;22.39;40.73
69749;BME280;57019;52.354;6.584;2022-09-01T08:46:26;102231.84;;;22.38;40.61
69749;BME280;57019;52.354;6.584;2022-09-01T08:48:58;102231.03;;;22.37;40.67
69749;BME280;57019;52.354;6.584;2022-09-01T08:54:22;102234.03;;;22.42;40.53
69749;BME280;57019;52.354;6.584;2022-09-01T08:56:55;102234.84;;;22.43;40.40
69749;BME280;57019;52.354;6.584;2022-09-01T08:59:22;102232.38;;;22.41;40.66
69749;BME280;57019;52.354;6.584;2022-09-01T09:07:26;102234.16;;;22.41;40.72
69749;BME280;57019;52.354;6.584;2022-09-01T09:10:02;102236.31;;;22.37;40.74
69749;BME280;57019;52.354;6.584;2022-09-01T09:17:58;102223.97;;;22.38;40.65
69749;BME280;57019;52.354;6.584;2022-09-01T09:20:26;102220.19;;;22.40;40.58
69749;BME280;57019;52.354;6.584;2022-09-01T09:22:53;102221.84;;;22.41;40.79
69749;BME280;57019;52.354;6.584;2022-09-01T09:25:19;102217.22;;;22.43;40.61
69749;BME280;57019;52.354;6.584;2022-09-01T09:27:47;102213.28;;;22.39;40.72
69749;BME280;57019;52.354;6.584;2022-09-01T09:30:23;102218.53;;;22.39;40.56
69749;BME280;57019;52.354;6.584;2022-09-01T09:35:37;102208.00;;;22.39;40.62
69749;BME280;57019;52.354;6.584;2022-09-01T09:40:59;102203.75;;;22.38;40.75
69749;BME280;57019;52.354;6.584;2022-09-01T09:43:25;102200.44;;;22.36;40.67
69749;BME280;57019;52.354;6.584;2022-09-01T09:48:46;102197.47;;;22.39;40.59
69749;BME280;57019;52.354;6.584;2022-09-01T09:51:19;102193.88;;;22.40;40.58
69749;BME280;57019;52.354;6.584;2022-09-01T09:53:45;102185.97;;;22.40;40.40
69749;BME280;57019;52.354;6.584;2022-09-01T09:58:41;102176.25;;;22.41;40.39
69749;BME280;57019;52.354;6.584;2022-09-01T10:03:43;102175.13;;;22.43;40.48
69749;BME280;57019;52.354;6.584;2022-09-01T10:06:28;102180.38;;;22.43;40.37
69749;BME280;57019;52.354;6.584;2022-09-01T10:08:54;102179.91;;;22.40;40.52
69749;BME280;57019;52.354;6.584;2022-09-01T10:11:39;102175.63;;;22.39;40.32
69749;BME280;57019;52.354;6.584;2022-09-01T10:14:13;102171.16;;;22.39;40.38
69749;BME280;57019;52.354;6.584;2022-09-01T10:16:40;102163.28;;;22.39;40.26
69749;BME280;57019;52.354;6.584;2022-09-01T10:19:11;102159.81;;;22.39;40.38
69749;BME280;57019;52.354;6.584;2022-09-01T10:21:39;102156.22;;;22.40;40.15
69749;BME280;57019;52.354;6.584;2022-09-01T10:24:32;102160.63;;;22.39;40.06
69749;BME280;57019;52.354;6.584;2022-09-01T10:27:02;102162.28;;;22.40;40.32
69749;BME280;57019;52.354;6.584;2022-09-01T10:29:33;102163.94;;;22.41;40.16
69749;BME280;57019;52.354;6.584;2022-09-01T10:32:05;102164.91;;;22.40;39.89
69749;BME280;57019;52.354;6.584;2022-09-01T10:34:35;102160.63;;;22.39;40.13
69749;BME280;57019;52.354;6.584;2022-09-01T10:37:02;102157.03;;;22.40;39.97
69749;BME280;57019;52.354;6.584;2022-09-01T10:39:28;102167.56;;;22.40;39.84
69749;BME280;57019;52.354;6.584;2022-09-01T10:41:55;102150.13;;;22.39;40.07
69749;BME280;57019;52.354;6.584;2022-09-01T10:44:30;102154.41;;;22.40;39.70
69749;BME280;57019;52.354;6.584;2022-09-01T10:47:25;102142.88;;;22.41;39.85
69749;BME280;57019;52.354;6.584;2022-09-01T10:55:21;102132.53;;;22.40;39.49
69749;BME280;57019;52.354;6.584;2022-09-01T11:11:00;102128.06;;;22.48;39.28
69749;BME280;57019;52.354;6.584;2022-09-01T11:13:40;102120.00;;;22.50;39.19
69749;BME280;57019;52.354;6.584;2022-09-01T11:16:27;102134.31;;;22.47;39.07
69749;BME280;57019;52.354;6.584;2022-09-01T11:18:55;102119.53;;;22.46;39.09
69749;BME280;57019;52.354;6.584;2022-09-01T11:21:27;102122.47;;;22.43;38.51
69749;BME280;57019;52.354;6.584;2022-09-01T11:26:55;102115.72;;;22.41;38.66
69749;BME280;57019;52.354;6.584;2022-09-01T11:29:53;102118.06;;;22.44;38.56
69749;BME280;57019;52.354;6.584;2022-09-01T11:32:22;102121.84;;;22.41;38.80
69749;BME280;57019;52.354;6.584;2022-09-01T11:34:50;102114.75;;;22.42;38.76
69749;BME280;57019;52.354;6.584;2022-09-01T11:37:17;102109.31;;;22.43;38.60
69749;BME280;57019;52.354;6.584;2022-09-01T11:39:48;102101.25;;;22.45;38.49
69749;BME280;57019;52.354;6.584;2022-09-01T11:42:41;102108.16;;;22.46;38.29
69749;BME280;57019;52.354;6.584;2022-09-01T11:45:18;102103.56;;;22.48;38.18
69749;BME280;57019;52.354;6.584;2022-09-01T11:48:08;102104.72;;;22.45;38.08
69749;BME280;57019;52.354;6.584;2022-09-01T11:50:41;102102.91;;;22.46;38.32
69749;BME280;57019;52.354;6.584;2022-09-01T11:55:40;102109.00;;;22.46;38.26
69749;BME280;57019;52.354;6.584;2022-09-01T11:58:30;102104.38;;;22.48;37.79
69749;BME280;57019;52.354;6.584;2022-09-01T12:01:16;102097.81;;;22.52;37.66
69749;BME280;57019;52.354;6.584;2022-09-01T12:03:45;102091.72;;;22.52;37.79
69749;BME280;57019;52.354;6.584;2022-09-01T12:06:18;102096.66;;;22.55;37.68
69749;BME280;57019;52.354;6.584;2022-09-01T12:08:57;102089.72;;;22.54;37.53
69749;BME280;57019;52.354;6.584;2022-09-01T12:11:29;102088.91;;;22.53;37.43
69749;BME280;57019;52.354;6.584;2022-09-01T12:16:21;102091.72;;;22.52;37.32
69749;BME280;57019;52.354;6.584;2022-09-01T12:18:51;102093.50;;;22.51;37.28
69749;BME280;57019;52.354;6.584;2022-09-01T12:21:39;102089.72;;;22.54;37.14
69749;BME280;57019;52.354;6.584;2022-09-01T12:24:23;102087.59;;;22.58;37.13
69749;BME280;57019;52.354;6.584;2022-09-01T12:26:50;102086.94;;;22.56;37.36
69749;BME280;57019;52.354;6.584;2022-09-01T12:29:19;102073.78;;;22.56;37.27
69749;BME280;57019;52.354;6.584;2022-09-01T12:31:46;102086.13;;;22.55;37.17
69749;BME280;57019;52.354;6.584;2022-09-01T12:39:45;102067.50;;;22.65;36.37
69749;BME280;57019;52.354;6.584;2022-09-01T12:42:24;102076.22;;;22.65;36.33
69749;BME280;57019;52.354;6.584;2022-09-01T12:45:05;102070.13;;;22.65;36.07
69749;BME280;57019;52.354;6.584;2022-09-01T12:49:58;102068.16;;;22.67;35.58
69749;BME280;57019;52.354;6.584;2022-09-01T12:52:25;102066.53;;;22.66;35.76
69749;BME280;57019;52.354;6.584;2022-09-01T12:57:28;102070.47;;;22.70;35.68
69749;BME280;57019;52.354;6.584;2022-09-01T13:02:46;102062.53;;;22.78;35.55
69749;BME280;57019;52.354;6.584;2022-09-01T13:08:03;102058.41;;;22.76;35.85
69749;BME280;57019;52.354;6.584;2022-09-01T13:10:31;102049.38;;;22.78;35.70
69749;BME280;57019;52.354;6.584;2022-09-01T13:12:58;102046.91;;;22.77;35.69
69749;BME280;57019;52.354;6.584;2022-09-01T13:15:24;102039.63;;;22.79;35.56
69749;BME280;57019;52.354;6.584;2022-09-01T13:17:50;102042.78;;;22.82;35.61
69749;BME280;57019;52.354;6.584;2022-09-01T13:20:15;102039.16;;;22.83;35.47
69749;BME280;57019;52.354;6.584;2022-09-01T13:22:41;102036.53;;;22.83;35.57
69749;BME280;57019;52.354;6.584;2022-09-01T13:25:09;102034.69;;;22.84;35.33
69749;BME280;57019;52.354;6.584;2022-09-01T13:27:35;102032.88;;;22.84;35.51
69749;BME280;57019;52.354;6.584;2022-09-01T13:30:03;102024.47;;;22.89;35.20
69749;BME280;57019;52.354;6.584;2022-09-01T13:32:29;102013.09;;;22.88;35.37
69749;BME280;57019;52.354;6.584;2022-09-01T13:34:54;102028.91;;;22.88;35.44
69749;BME280;57019;52.354;6.584;2022-09-01T13:37:21;102019.22;;;22.89;35.25
69749;BME280;57019;52.354;6.584;2022-09-01T13:39:46;102028.59;;;22.92;35.41
69749;BME280;57019;52.354;6.584;2022-09-01T13:42:12;102026.59;;;22.94;35.16
69749;BME280;57019;52.354;6.584;2022-09-01T13:44:38;102020.16;;;22.96;35.11
69749;BME280;57019;52.354;6.584;2022-09-01T13:47:03;102013.25;;;22.95;35.13
69749;BME280;57019;52.354;6.584;2022-09-01T13:49:29;102014.22;;;22.94;35.07
69749;BME280;57019;52.354;6.584;2022-09-01T13:51:55;102029.03;;;22.95;35.05
69749;BME280;57019;52.354;6.584;2022-09-01T13:54:20;102021.13;;;22.95;34.90
69749;BME280;57019;52.354;6.584;2022-09-01T13:56:45;102024.25;;;22.99;34.81
69749;BME280;57019;52.354;6.584;2022-09-01T13:59:11;102012.88;;;22.98;34.97
69749;BME280;57019;52.354;6.584;2022-09-01T14:01:36;102011.72;;;23.01;34.91
69749;BME280;57019;52.354;6.584;2022-09-01T14:04:02;102008.09;;;23.02;34.92
69749;BME280;57019;52.354;6.584;2022-09-01T14:06:31;102008.09;;;23.02;35.04
69749;BME280;57019;52.354;6.584;2022-09-01T14:08:56;102005.28;;;23.03;34.90
69749;BME280;57019;52.354;6.584;2022-09-01T14:11:24;102002.47;;;23.05;34.67
69749;BME280;57019;52.354;6.584;2022-09-01T14:13:50;101998.06;;;23.06;34.74
69749;BME280;57019;52.354;6.584;2022-09-01T14:16:15;101994.25;;;23.08;34.71
69749;BME280;57019;52.354;6.584;2022-09-01T14:18:41;102000.16;;;23.10;34.76
69749;BME280;57019;52.354;6.584;2022-09-01T14:21:11;102000.84;;;23.12;34.65